createdAt,value
2018-01-15T00:00:09.573Z,58.87
2018-01-15T00:02:47.229Z,59.02
2018-01-15T00:05:26.451Z,59.01
2018-01-15T00:07:59.694Z,59.09
2018-01-15T00:10:35.277Z,59.05
2018-01-15T00:13:07.033Z,59.07
2018-01-15T00:15:41.524Z,59.01
2018-01-15T00:18:14.671Z,59.42
2018-01-15T00:20:52.841Z,59.18
2018-01-15T00:23:33.687Z,59.11
2018-01-15T00:26:06.768Z,59.05
2018-01-15T00:28:48.297Z,58.83
2018-01-15T00:31:20.471Z,58.77
2018-01-15T00:33:53.681Z,58.65
2018-01-15T00:36:24.161Z,58.94
2018-01-15T00:38:55.531Z,58.93
2018-01-15T00:41:30.448Z,58.98
2018-01-15T00:44:02.077Z,59.10
2018-01-15T00:46:34.585Z,59.08
2018-01-15T00:49:05.570Z,58.84
2018-01-15T00:51:37.766Z,58.62
2018-01-15T00:54:11.966Z,58.73
2018-01-15T00:56:42.790Z,59.13
2018-01-15T00:59:13.862Z,58.76
2018-01-15T01:01:44.363Z,58.77
2018-01-15T01:04:14.913Z,58.72
2018-01-15T01:06:45.411Z,58.76
2018-01-15T01:09:15.897Z,58.79
2018-01-15T01:11:48.358Z,59.16
2018-01-15T01:14:18.652Z,59.49
2018-01-15T01:16:48.946Z,59.52
2018-01-15T01:19:19.178Z,59.69
2018-01-15T01:21:49.615Z,59.84
2018-01-15T01:24:20.121Z,60.13
2018-01-15T01:26:50.417Z,59.88
2018-01-15T01:29:21.321Z,59.78
2018-01-15T01:31:52.993Z,59.44
2018-01-15T01:34:23.206Z,59.90
2018-01-15T01:36:54.584Z,59.78
2018-01-15T01:39:28.021Z,60.16
2018-01-15T01:41:59.911Z,59.75
2018-01-15T01:44:30.814Z,59.92
2018-01-15T01:47:02.813Z,59.89
2018-01-15T01:49:33.066Z,59.81
2018-01-15T01:52:07.229Z,60.44
2018-01-15T01:54:43.092Z,60.12
2018-01-15T01:57:13.963Z,59.65
2018-01-15T01:59:44.309Z,60.09
2018-01-15T02:02:15.841Z,60.07
2018-01-15T02:04:46.847Z,59.57
2018-01-15T02:07:17.258Z,59.67
2018-01-15T02:09:50.712Z,59.60
2018-01-15T02:12:21.069Z,59.38
2018-01-15T02:14:52.981Z,59.40
2018-01-15T02:17:24.029Z,59.42
2018-01-15T02:19:55.606Z,59.05
2018-01-15T02:22:31.308Z,58.98
2018-01-15T02:25:01.938Z,58.85
2018-01-15T02:27:32.418Z,58.67
2018-01-15T02:30:04.898Z,58.76
2018-01-15T02:32:36.114Z,58.47
2018-01-15T02:35:06.978Z,58.82
2018-01-15T02:37:37.905Z,58.92
2018-01-15T02:40:08.947Z,58.54
2018-01-15T02:42:39.804Z,58.44
2018-01-15T02:45:14.619Z,58.23
2018-01-15T02:47:45.494Z,58.01
2018-01-15T02:50:16.052Z,58.21
2018-01-15T02:52:46.348Z,58.33
2018-01-15T02:55:16.666Z,58.35
2018-01-15T02:57:47.510Z,58.22
2018-01-15T03:00:19.689Z,58.00
2018-01-15T03:02:51.230Z,58.05
2018-01-15T03:05:22.600Z,58.06
2018-01-15T03:07:56.300Z,58.09
2018-01-15T03:10:27.199Z,58.15
2018-01-15T03:12:58.711Z,57.91
2018-01-15T03:15:29.342Z,58.50
2018-01-15T03:18:00.636Z,58.83
2018-01-15T03:20:34.780Z,58.24
2018-01-15T03:23:07.333Z,58.55
2018-01-15T03:25:39.656Z,58.30
2018-01-15T03:28:12.566Z,59.31
2018-01-15T03:30:44.403Z,58.77
2018-01-15T03:33:15.265Z,58.83
2018-01-15T03:35:46.588Z,58.99
2018-01-15T03:38:17.148Z,58.54
2018-01-15T03:40:47.863Z,58.14
2018-01-15T03:43:18.252Z,57.80
2018-01-15T03:45:49.363Z,57.96
2018-01-15T03:48:19.779Z,58.43
2018-01-15T03:50:50.496Z,58.01
2018-01-15T03:53:21.323Z,58.78
2018-01-15T03:55:51.989Z,59.05
2018-01-15T03:58:23.187Z,58.59
2018-01-15T04:00:54.118Z,58.64
2018-01-15T04:03:25.495Z,58.76
2018-01-15T04:05:56.947Z,58.42
2018-01-15T04:08:28.422Z,58.08
2018-01-15T04:10:58.842Z,57.78
2018-01-15T04:13:29.687Z,57.65
2018-01-15T04:16:00.993Z,57.35
2018-01-15T04:18:32.680Z,57.27
2018-01-15T04:21:03.454Z,57.86
2018-01-15T04:23:33.766Z,58.47
2018-01-15T04:26:04.430Z,58.36
2018-01-15T04:28:35.098Z,58.25
2018-01-15T04:31:05.613Z,58.42
2018-01-15T04:33:35.945Z,58.60
2018-01-15T04:36:06.674Z,58.28
2018-01-15T04:38:37.142Z,58.85
2018-01-15T04:41:08.198Z,58.30
2018-01-15T04:43:39.635Z,58.66
2018-01-15T04:46:10.415Z,58.49
2018-01-15T04:48:41.110Z,58.79
2018-01-15T04:51:11.847Z,60.50
2018-01-15T04:53:42.143Z,59.48
2018-01-15T04:56:16.664Z,58.77
2018-01-15T04:58:48.807Z,58.69
2018-01-15T05:01:19.874Z,60.50
2018-01-15T05:03:51.749Z,60.15
2018-01-15T05:06:22.204Z,62.12
2018-01-15T05:08:53.384Z,61.24
2018-01-15T05:11:24.233Z,61.02
2018-01-15T05:13:54.405Z,61.24
2018-01-15T05:16:25.030Z,59.79
2018-01-15T05:18:56.018Z,59.54
2018-01-15T05:21:26.328Z,60.73
2018-01-15T05:23:56.719Z,61.39
2018-01-15T05:26:27.413Z,60.56
2018-01-15T05:28:57.665Z,59.96
2018-01-15T05:31:29.455Z,61.44
2018-01-15T05:33:59.923Z,60.56
2018-01-15T05:36:32.300Z,59.66
2018-01-15T05:39:02.989Z,59.08
2018-01-15T05:41:33.232Z,58.66
2018-01-15T05:44:04.528Z,58.50
2018-01-15T05:46:35.269Z,59.07
2018-01-15T05:49:06.429Z,58.76
2018-01-15T05:51:36.753Z,58.86
2018-01-15T05:54:07.445Z,59.06
2018-01-15T05:56:37.688Z,59.16
2018-01-15T05:59:10.132Z,58.63
2018-01-15T06:01:41.787Z,59.02
2018-01-15T06:04:13.511Z,58.61
2018-01-15T06:09:15.310Z,58.53
2018-01-15T06:11:46.964Z,58.90
2018-01-15T06:14:18.243Z,58.80
2018-01-15T06:16:48.845Z,58.96
2018-01-15T06:19:19.156Z,59.68
2018-01-15T06:21:51.046Z,59.89
2018-01-15T06:24:22.002Z,61.00
2018-01-15T06:26:56.636Z,60.91
2018-01-15T06:29:27.540Z,61.24
2018-01-15T06:31:58.900Z,61.87
2018-01-15T06:34:29.515Z,61.50
2018-01-15T06:37:01.474Z,61.25
2018-01-15T06:39:31.865Z,61.81
2018-01-15T06:42:03.563Z,62.02
2018-01-15T06:44:37.027Z,62.39
2018-01-15T06:47:08.845Z,61.89
2018-01-15T06:49:39.989Z,61.87
2018-01-15T06:52:19.187Z,61.59
2018-01-15T06:55:12.032Z,61.91
2018-01-15T06:57:47.915Z,62.48
2018-01-15T07:00:24.230Z,62.99
2018-01-15T07:02:58.009Z,63.24
2018-01-15T07:05:31.489Z,62.61
2018-01-15T07:08:03.823Z,62.87
2018-01-15T07:10:37.205Z,62.91
2018-01-15T07:13:15.898Z,62.84
2018-01-15T07:15:49.652Z,63.86
2018-01-15T07:18:23.953Z,63.73
2018-01-15T07:20:55.264Z,63.58
2018-01-15T07:23:26.962Z,62.61
2018-01-15T07:25:58.061Z,62.67
2018-01-15T07:28:28.370Z,63.44
2018-01-15T07:30:58.792Z,62.43
2018-01-15T07:33:32.456Z,62.33
2018-01-15T07:36:04.820Z,62.36
2018-01-15T07:38:37.528Z,62.48
2018-01-15T07:41:08.400Z,62.46
2018-01-15T07:43:39.348Z,62.53
2018-01-15T07:46:09.954Z,62.66
2018-01-15T07:48:41.180Z,62.06
2018-01-15T07:51:11.837Z,62.07
2018-01-15T07:53:56.356Z,62.61
2018-01-15T07:56:27.507Z,62.55
2018-01-15T07:59:01.115Z,63.55
2018-01-15T08:01:32.545Z,63.53
2018-01-15T08:04:04.867Z,63.80
2018-01-15T08:06:36.337Z,63.27
2018-01-15T08:09:07.028Z,63.14
2018-01-15T08:11:37.251Z,63.54
2018-01-15T08:14:07.866Z,62.76
2018-01-15T08:16:38.897Z,63.69
2018-01-15T08:19:09.266Z,63.41
2018-01-15T08:21:39.922Z,63.48
2018-01-15T08:24:10.798Z,62.53
2018-01-15T08:26:41.870Z,62.91
2018-01-15T08:29:12.619Z,62.59
2018-01-15T08:31:43.089Z,62.16
2018-01-15T08:34:13.833Z,62.18
2018-01-15T08:36:44.367Z,61.72
2018-01-15T08:39:15.114Z,61.85
2018-01-15T08:41:46.513Z,62.24
2018-01-15T08:44:18.145Z,62.31
2018-01-15T08:46:50.094Z,61.88
2018-01-15T08:49:28.630Z,61.33
2018-01-15T08:51:59.608Z,61.51
2018-01-15T08:54:30.676Z,61.93
2018-01-15T08:57:00.995Z,61.51
2018-01-15T08:59:32.534Z,61.19
2018-01-15T09:04:43.406Z,62.12
2018-01-15T09:07:15.201Z,61.43
2018-01-15T09:09:46.417Z,61.73
2018-01-15T09:12:18.533Z,61.82
2018-01-15T09:14:50.432Z,61.23
2018-01-15T09:17:22.215Z,61.09
2018-01-15T09:19:52.773Z,60.83
2018-01-15T09:22:24.013Z,60.51
2018-01-15T09:24:55.493Z,61.00
2018-01-15T09:27:26.658Z,60.53
2018-01-15T09:29:58.279Z,60.38
2018-01-15T09:32:29.231Z,59.67
2018-01-15T09:35:01.446Z,59.25
2018-01-15T09:37:32.761Z,59.57
2018-01-15T09:40:10.958Z,58.01
2018-01-15T09:42:44.798Z,59.56
2018-01-15T09:45:23.410Z,58.03
2018-01-15T09:47:54.569Z,59.41
2018-01-15T09:50:27.727Z,59.55
2018-01-15T09:53:02.499Z,59.24
2018-01-15T09:55:36.487Z,59.54
2018-01-15T09:58:10.118Z,57.06
2018-01-15T10:00:41.908Z,54.69
2018-01-15T10:03:13.217Z,53.19
2018-01-15T10:05:47.298Z,51.66
2018-01-15T10:08:19.926Z,55.16
2018-01-15T10:13:21.514Z,56.27
2018-01-15T10:15:53.874Z,58.39
2018-01-15T10:18:26.130Z,58.36
2018-01-15T10:20:58.401Z,59.15
2018-01-15T10:23:30.551Z,58.89
2018-01-15T10:26:01.153Z,59.96
2018-01-15T10:28:32.024Z,60.32
2018-01-15T10:31:05.758Z,58.89
2018-01-15T10:33:36.915Z,61.87
2018-01-15T10:36:13.068Z,60.74
2018-01-15T10:38:45.650Z,59.33
2018-01-15T10:41:16.558Z,60.37
2018-01-15T10:43:49.319Z,60.88
2018-01-15T10:46:23.791Z,61.44
2018-01-15T10:48:59.457Z,60.45
2018-01-15T10:51:32.387Z,62.08
2018-01-15T10:54:04.182Z,62.28
2018-01-15T10:56:34.556Z,61.26
2018-01-15T10:59:06.470Z,61.51
2018-01-15T11:01:37.596Z,63.47
2018-01-15T11:04:08.965Z,62.06
2018-01-15T11:06:39.393Z,63.95
2018-01-15T11:09:11.504Z,62.87
2018-01-15T11:11:47.376Z,61.71
2018-01-15T11:14:24.863Z,61.21
2018-01-15T11:16:57.276Z,61.47
2018-01-15T11:19:31.690Z,60.78
2018-01-15T11:22:04.991Z,61.50
2018-01-15T11:24:36.449Z,60.56
2018-01-15T11:27:08.228Z,61.35
2018-01-15T11:29:40.446Z,61.32
2018-01-15T11:32:12.786Z,61.56
2018-01-15T11:34:46.157Z,63.26
2018-01-15T11:37:21.081Z,63.38
2018-01-15T11:42:22.603Z,63.08
2018-01-15T11:44:53.934Z,63.37
2018-01-15T11:47:24.721Z,62.77
2018-01-15T11:49:55.777Z,64.16
2018-01-15T11:52:28.637Z,64.09
2018-01-15T11:55:02.716Z,64.31
2018-01-15T11:57:33.967Z,63.52
2018-01-15T12:00:10.667Z,64.13
2018-01-15T12:02:46.756Z,63.99
2018-01-15T12:05:18.112Z,64.02
2018-01-15T12:07:55.671Z,63.90
2018-01-15T12:10:26.031Z,63.96
2018-01-15T12:12:57.450Z,63.32
2018-01-15T12:15:32.977Z,65.19
2018-01-15T12:18:05.693Z,64.34
2018-01-15T12:20:38.759Z,64.33
2018-01-15T12:29:27.241Z,66.54
2018-01-15T12:31:59.026Z,66.26
2018-01-15T12:34:29.276Z,66.68
2018-01-15T12:37:00.320Z,65.88
2018-01-15T12:39:30.784Z,65.71
2018-01-15T12:42:01.327Z,64.91
2018-01-15T12:44:32.265Z,64.98
2018-01-15T12:47:08.897Z,65.19
2018-01-15T12:49:41.067Z,66.27
2018-01-15T12:52:15.798Z,65.22
2018-01-15T12:54:47.696Z,66.09
2018-01-15T12:57:21.934Z,66.23
2018-01-15T12:59:54.628Z,67.41
2018-01-15T13:02:26.021Z,66.22
2018-01-15T13:05:06.631Z,65.88
2018-01-15T13:07:46.141Z,66.54
2018-01-15T13:10:19.917Z,65.27
2018-01-15T13:12:53.316Z,64.83
2018-01-15T13:15:24.928Z,65.92
2018-01-15T13:17:59.714Z,65.37
2018-01-15T13:20:30.680Z,65.05
2018-01-15T13:23:03.376Z,67.73
2018-01-15T13:25:38.301Z,67.39
2018-01-15T13:28:08.538Z,67.70
2018-01-15T13:30:40.986Z,67.28
2018-01-15T13:33:13.994Z,67.48
2018-01-15T13:35:45.531Z,67.65
2018-01-15T13:38:16.524Z,67.54
2018-01-15T13:40:50.671Z,67.86
2018-01-15T13:43:21.778Z,67.76
2018-01-15T13:45:53.923Z,68.38
2018-01-15T13:48:24.172Z,68.24
2018-01-15T13:50:57.671Z,68.74
2018-01-15T13:53:31.686Z,68.66
2018-01-15T13:56:10.348Z,69.31
2018-01-15T13:58:41.505Z,70.24
2018-01-15T14:01:12.686Z,70.82
2018-01-15T14:03:43.937Z,71.05
2018-01-15T14:06:28.859Z,70.97
2018-01-15T14:08:59.831Z,71.61
2018-01-15T14:11:32.109Z,72.10
2018-01-15T14:14:04.456Z,70.66
2018-01-15T14:16:36.286Z,70.63
2018-01-15T14:19:10.374Z,71.39
2018-01-15T14:21:43.538Z,72.29
2018-01-15T14:24:15.093Z,71.39
2018-01-15T14:26:48.551Z,70.29
2018-01-15T14:29:22.100Z,69.61
2018-01-15T14:31:55.450Z,70.27
2018-01-15T14:34:29.542Z,70.08
2018-01-15T14:37:01.452Z,71.00
2018-01-15T14:39:38.735Z,70.00
2018-01-15T14:42:11.479Z,70.90
2018-01-15T14:44:43.710Z,73.29
2018-01-15T14:47:17.009Z,73.07
2018-01-15T14:49:53.086Z,71.91
2018-01-15T14:52:23.881Z,72.46
2018-01-15T14:54:56.206Z,71.99
2018-01-15T14:57:28.208Z,72.28
2018-01-15T15:00:00.408Z,72.81
2018-01-15T15:02:36.089Z,72.63
2018-01-15T15:05:11.061Z,74.10
2018-01-15T15:07:41.617Z,73.21
2018-01-15T15:10:12.843Z,74.55
2018-01-15T15:12:47.454Z,73.59
2018-01-15T15:15:19.794Z,73.42
2018-01-15T15:17:52.331Z,73.19
2018-01-15T15:20:27.272Z,72.41
2018-01-15T15:22:58.671Z,71.70
2018-01-15T15:25:35.513Z,72.35
2018-01-15T15:28:07.049Z,72.55
2018-01-15T15:30:42.264Z,73.06
2018-01-15T15:33:15.630Z,73.44
2018-01-15T15:35:51.970Z,72.14
2018-01-15T15:38:23.353Z,73.96
2018-01-15T15:40:56.837Z,73.52
2018-01-15T15:43:28.468Z,73.18
2018-01-15T15:46:00.620Z,72.51
2018-01-15T15:48:32.980Z,71.72
2018-01-15T15:51:06.041Z,70.65
2018-01-15T15:53:39.783Z,70.81
2018-01-15T15:56:13.831Z,71.18
2018-01-15T15:58:52.541Z,71.53
2018-01-15T16:01:24.868Z,71.01
2018-01-15T16:03:57.863Z,71.14
2018-01-15T16:06:42.314Z,70.88
2018-01-15T16:09:13.048Z,69.83
2018-01-15T16:11:45.685Z,69.24
2018-01-15T16:14:17.327Z,70.10
2018-01-15T16:16:52.776Z,69.84
2018-01-15T16:19:23.910Z,70.87
2018-01-15T16:22:04.288Z,69.41
2018-01-15T16:24:35.933Z,69.25
2018-01-15T16:27:19.923Z,68.77
2018-01-15T16:29:52.109Z,71.11
2018-01-15T16:32:24.038Z,71.15
2018-01-15T16:34:56.387Z,71.00
2018-01-15T16:37:27.008Z,72.45
2018-01-15T16:39:58.104Z,73.99
2018-01-15T16:42:29.214Z,73.72
2018-01-15T16:45:00.723Z,74.47
2018-01-15T16:47:36.637Z,74.06
2018-01-15T16:50:12.969Z,74.92
2018-01-15T16:52:45.523Z,74.93
2018-01-15T16:55:17.041Z,75.88
2018-01-15T16:57:48.869Z,76.09
2018-01-15T17:00:22.648Z,76.20
2018-01-15T17:02:54.865Z,76.29
2018-01-15T17:05:28.534Z,76.48
2018-01-15T17:08:00.533Z,76.02
2018-01-15T17:10:31.860Z,76.80
2018-01-15T17:13:05.787Z,76.05
2018-01-15T17:15:41.654Z,76.65
2018-01-15T17:18:22.662Z,77.35
2018-01-15T17:20:53.627Z,77.35
2018-01-15T17:23:24.725Z,77.50
2018-01-15T17:25:55.678Z,77.61
2018-01-15T17:28:26.844Z,77.04
2018-01-15T17:30:59.245Z,76.87
2018-01-15T17:33:31.882Z,78.35
2018-01-15T17:36:02.812Z,77.88
2018-01-15T17:38:36.679Z,78.17
2018-01-15T17:41:18.261Z,78.52
2018-01-15T17:43:55.646Z,78.51
2018-01-15T17:46:29.294Z,77.85
2018-01-15T17:49:04.587Z,78.32
2018-01-15T17:51:38.552Z,78.51
2018-01-15T17:54:12.366Z,78.23
2018-01-15T17:56:48.130Z,78.31
2018-01-15T17:59:20.021Z,77.91
2018-01-15T18:01:56.743Z,77.00
2018-01-15T18:04:34.441Z,78.37
2018-01-15T18:07:07.859Z,78.09
2018-01-15T18:12:33.945Z,77.41
2018-01-15T18:15:19.464Z,77.36
2018-01-15T18:18:00.168Z,76.33
2018-01-15T18:20:33.222Z,75.69
2018-01-15T18:23:11.412Z,75.82
2018-01-15T18:25:42.580Z,75.40
2018-01-15T18:28:18.294Z,75.32
2018-01-15T18:30:53.794Z,74.86
2018-01-15T18:33:29.361Z,74.36
2018-01-15T18:36:03.122Z,73.58
2018-01-15T18:38:41.273Z,73.25
2018-01-15T18:41:16.341Z,72.58
2018-01-15T18:43:48.778Z,73.34
2018-01-15T18:46:27.517Z,72.56
2018-01-15T18:49:04.200Z,71.81
2018-01-15T18:51:39.285Z,72.13
2018-01-15T18:54:11.141Z,71.86
2018-01-15T18:59:21.417Z,71.91
2018-01-15T19:01:52.664Z,71.55
2018-01-15T19:04:24.050Z,71.39
2018-01-15T19:06:56.242Z,71.02
2018-01-15T19:09:29.710Z,70.58
2018-01-15T19:12:06.778Z,70.73
2018-01-15T19:14:42.637Z,71.36
2018-01-15T19:17:17.304Z,70.39
2018-01-15T19:19:52.852Z,70.06
2018-01-15T19:22:24.919Z,69.89
2018-01-15T19:24:57.363Z,69.46
2018-01-15T19:27:28.798Z,68.49
2018-01-15T19:30:03.447Z,68.78
2018-01-15T19:32:38.483Z,68.44
2018-01-15T19:35:12.623Z,67.76
2018-01-15T19:37:54.050Z,68.36
2018-01-15T19:40:27.043Z,67.67
2018-01-15T19:43:04.215Z,67.98
2018-01-15T19:47:45.878Z,68.85
2018-01-15T19:50:22.708Z,69.14
2018-01-15T19:55:07.008Z,68.82
2018-01-15T19:57:56.444Z,68.14
2018-01-15T20:02:36.823Z,68.08
2018-01-15T20:07:22.887Z,67.67
2018-01-15T20:10:57.897Z,68.55
2018-01-15T20:13:35.934Z,68.11
2018-01-15T20:16:14.846Z,68.05
2018-01-15T20:18:50.526Z,68.14
2018-01-15T20:21:29.975Z,67.21
2018-01-15T20:24:04.171Z,67.58
2018-01-15T20:26:39.813Z,67.46
2018-01-15T20:29:22.740Z,67.65
2018-01-15T20:31:56.837Z,67.51
2018-01-15T20:34:34.344Z,68.10
2018-01-15T20:37:10.887Z,69.10
2018-01-15T20:40:04.281Z,68.89
2018-01-15T20:42:42.634Z,70.04
2018-01-15T20:45:23.419Z,70.27
2018-01-15T20:47:59.926Z,71.60
2018-01-15T20:50:34.229Z,72.31
2018-01-15T20:53:10.618Z,73.22
2018-01-15T20:56:10.783Z,73.20
2018-01-15T20:58:50.194Z,73.51
2018-01-15T21:01:26.923Z,73.53
2018-01-15T21:04:07.673Z,73.01
2018-01-15T21:06:44.350Z,72.52
2018-01-15T21:09:18.932Z,72.99
2018-01-15T21:11:52.903Z,74.43
2018-01-15T21:14:28.890Z,74.15
2018-01-15T21:17:04.495Z,73.64
2018-01-15T21:19:36.025Z,73.10
2018-01-15T21:22:08.638Z,73.08
2018-01-15T21:24:43.543Z,72.56
2018-01-15T21:27:20.210Z,72.62
2018-01-15T21:29:54.202Z,72.97
2018-01-15T21:32:43.382Z,73.45
2018-01-15T21:35:17.355Z,73.44
2018-01-15T21:37:52.138Z,74.40
2018-01-15T21:40:25.341Z,74.05
2018-01-15T21:42:58.817Z,74.58
2018-01-15T21:45:32.115Z,73.89
2018-01-15T21:48:05.225Z,74.16
2018-01-15T21:50:38.860Z,73.74
2018-01-15T21:53:11.270Z,73.71
2018-01-15T21:55:57.910Z,73.43
2018-01-15T21:58:30.198Z,73.79
2018-01-15T22:01:03.259Z,73.80
2018-01-15T22:03:35.165Z,74.43
2018-01-15T22:06:07.578Z,74.09
2018-01-15T22:08:41.828Z,73.35
2018-01-15T22:11:13.416Z,73.13
2018-01-15T22:13:46.773Z,72.93
2018-01-15T22:16:22.278Z,72.35
2018-01-15T22:18:56.962Z,72.35
2018-01-15T22:21:28.650Z,72.07
2018-01-15T22:24:04.203Z,71.84
2018-01-15T22:26:34.709Z,71.59
2018-01-15T22:29:07.483Z,71.74
2018-01-15T22:31:41.256Z,71.63
2018-01-15T22:34:12.706Z,71.73
2018-01-15T22:36:44.220Z,72.29
2018-01-15T22:39:19.909Z,71.84
2018-01-15T22:41:50.619Z,72.64
2018-01-15T22:44:21.969Z,73.07
2018-01-15T22:46:54.474Z,73.31
2018-01-15T22:49:28.622Z,73.66
2018-01-15T22:52:05.275Z,73.85
2018-01-15T22:54:39.718Z,74.35
2018-01-15T22:57:24.801Z,73.65
2018-01-15T22:59:59.813Z,73.87
2018-01-15T23:02:36.115Z,73.96
2018-01-15T23:05:09.453Z,74.21
2018-01-15T23:07:46.022Z,74.29
2018-01-15T23:10:18.522Z,74.19
2018-01-15T23:12:54.723Z,74.38
2018-01-15T23:15:28.947Z,73.89
2018-01-15T23:18:03.589Z,74.79
2018-01-15T23:20:39.117Z,74.80
2018-01-15T23:23:11.685Z,74.91
2018-01-15T23:25:43.186Z,74.67
2018-01-15T23:28:16.839Z,74.73
2018-01-15T23:30:48.556Z,75.11
2018-01-15T23:33:21.552Z,75.04
2018-01-15T23:35:55.758Z,75.07
2018-01-15T23:38:29.014Z,74.40
2018-01-15T23:41:00.845Z,73.84
2018-01-15T23:43:32.174Z,73.46
2018-01-15T23:46:05.866Z,73.26
2018-01-15T23:48:39.206Z,72.75
2018-01-15T23:51:14.138Z,72.08
2018-01-15T23:53:45.556Z,72.02
2018-01-15T23:56:16.347Z,72.08
2018-01-15T23:58:46.609Z,71.83
